sensor_id;sensor_type;location;lat;lon;timestamp;pressure;altitude;pressure_sealevel;temperature;humidity
9059;BME280;4564;42.034;25.834;2022-11-18T00:01:03;99228.44;;;8.31;100.00
9059;BME280;4564;42.034;25.834;2022-11-18T00:03:30;99231.59;;;8.34;100.00
9059;BME280;4564;42.034;25.834;2022-11-18T00:05:57;99220.81;;;8.41;100.00
9059;BME280;4564;42.034;25.834;2022-11-18T00:08:24;99216.84;;;8.43;100.00
9059;BME280;4564;42.034;25.834;2022-11-18T00:10:52;99219.94;;;8.34;100.00
9059;BME280;4564;42.034;25.834;2022-11-18T00:13:19;99220.34;;;8.37;100.00
9059;BME280;4564;42.034;25.834;2022-11-18T00:16:04;99221.59;;;8.35;100.00
9059;BME280;4564;42.034;25.834;2022-11-18T00:18:31;99220.81;;;8.48;100.00
9059;BME280;4564;42.034;25.834;2022-11-18T00:20:59;99218.19;;;8.61;100.00
9059;BME280;4564;42.034;25.834;2022-11-18T00:23:26;99225.47;;;8.60;100.00
9059;BME280;4564;42.034;25.834;2022-11-18T00:25:54;99230.28;;;8.65;100.00
9059;BME280;4564;42.034;25.834;2022-11-18T00:28:21;99242.13;;;8.57;100.00
9059;BME280;4564;42.034;25.834;2022-11-18T00:30:47;99225.44;;;8.47;100.00
9059;BME280;4564;42.034;25.834;2022-11-18T00:33:14;99234.94;;;8.43;100.00
9059;BME280;4564;42.034;25.834;2022-11-18T00:35:41;99235.97;;;8.35;100.00
9059;BME280;4564;42.034;25.834;2022-11-18T00:38:07;99229.53;;;8.36;100.00
9059;BME280;4564;42.034;25.834;2022-11-18T00:40:34;99227.78;;;8.29;100.00
9059;BME280;4564;42.034;25.834;2022-11-18T00:43:02;99234.63;;;8.25;100.00
9059;BME280;4564;42.034;25.834;2022-11-18T00:45:27;99229.63;;;8.28;100.00
9059;BME280;4564;42.034;25.834;2022-11-18T00:47:54;99237.69;;;8.22;100.00
9059;BME280;4564;42.034;25.834;2022-11-18T00:50:20;99228.13;;;8.19;100.00
9059;BME280;4564;42.034;25.834;2022-11-18T00:52:47;99233.50;;;8.13;100.00
9059;BME280;4564;42.034;25.834;2022-11-18T00:55:14;99228.50;;;8.10;100.00
9059;BME280;4564;42.034;25.834;2022-11-18T00:57:40;99236.75;;;8.01;100.00
9059;BME280;4564;42.034;25.834;2022-11-18T01:00:09;99235.53;;;8.04;100.00
9059;BME280;4564;42.034;25.834;2022-11-18T01:02:36;99233.00;;;8.02;100.00
9059;BME280;4564;42.034;25.834;2022-11-18T01:05:03;99228.03;;;8.06;100.00
9059;BME280;4564;42.034;25.834;2022-11-18T01:07:30;99231.75;;;7.98;100.00
9059;BME280;4564;42.034;25.834;2022-11-18T01:09:56;99224.00;;;7.95;100.00
9059;BME280;4564;42.034;25.834;2022-11-18T01:12:23;99217.22;;;8.06;100.00
9059;BME280;4564;42.034;25.834;2022-11-18T01:15:08;99218.16;;;8.20;100.00
9059;BME280;4564;42.034;25.834;2022-11-18T01:17:35;99231.69;;;8.20;100.00
9059;BME280;4564;42.034;25.834;2022-11-18T01:20:02;99234.81;;;8.23;100.00
9059;BME280;4564;42.034;25.834;2022-11-18T01:22:28;99238.00;;;8.33;100.00
9059;BME280;4564;42.034;25.834;2022-11-18T01:24:55;99236.34;;;8.32;100.00
9059;BME280;4564;42.034;25.834;2022-11-18T01:27:22;99238.72;;;8.21;100.00
9059;BME280;4564;42.034;25.834;2022-11-18T01:29:48;99245.13;;;8.13;100.00
9059;BME280;4564;42.034;25.834;2022-11-18T01:32:16;99238.47;;;8.16;100.00
9059;BME280;4564;42.034;25.834;2022-11-18T01:34:43;99230.94;;;8.05;100.00
9059;BME280;4564;42.034;25.834;2022-11-18T01:37:09;99233.59;;;7.98;100.00
9059;BME280;4564;42.034;25.834;2022-11-18T01:39:36;99227.13;;;7.92;100.00
9059;BME280;4564;42.034;25.834;2022-11-18T01:42:03;99225.81;;;7.88;100.00
9059;BME280;4564;42.034;25.834;2022-11-18T01:47:11;99229.94;;;7.84;100.00
9059;BME280;4564;42.034;25.834;2022-11-18T01:49:39;99233.56;;;7.91;100.00
9059;BME280;4564;42.034;25.834;2022-11-18T01:52:06;99228.81;;;8.00;100.00
9059;BME280;4564;42.034;25.834;2022-11-18T01:54:34;99240.47;;;8.00;100.00
9059;BME280;4564;42.034;25.834;2022-11-18T01:57:03;99243.63;;;8.04;100.00
9059;BME280;4564;42.034;25.834;2022-11-18T01:59:32;99250.91;;;8.10;100.00
9059;BME280;4564;42.034;25.834;2022-11-18T02:02:02;99251.28;;;8.00;100.00
9059;BME280;4564;42.034;25.834;2022-11-18T02:04:30;99257.56;;;8.08;100.00
9059;BME280;4564;42.034;25.834;2022-11-18T02:06:59;99251.97;;;8.09;100.00
9059;BME280;4564;42.034;25.834;2022-11-18T02:09:26;99242.38;;;8.07;100.00
9059;BME280;4564;42.034;25.834;2022-11-18T02:11:53;99245.31;;;8.12;100.00
9059;BME280;4564;42.034;25.834;2022-11-18T02:14:21;99235.22;;;8.20;100.00
9059;BME280;4564;42.034;25.834;2022-11-18T02:16:55;99233.38;;;8.27;100.00
9059;BME280;4564;42.034;25.834;2022-11-18T02:19:31;99237.59;;;8.30;100.00
9059;BME280;4564;42.034;25.834;2022-11-18T02:22:08;99248.22;;;8.38;100.00
9059;BME280;4564;42.034;25.834;2022-11-18T02:24:40;99243.69;;;8.45;100.00
9059;BME280;4564;42.034;25.834;2022-11-18T02:29:54;99245.00;;;8.56;100.00
9059;BME280;4564;42.034;25.834;2022-11-18T02:32:25;99236.97;;;8.75;100.00
9059;BME280;4564;42.034;25.834;2022-11-18T02:34:57;99240.75;;;8.74;100.00
9059;BME280;4564;42.034;25.834;2022-11-18T02:37:28;99240.47;;;8.69;100.00
9059;BME280;4564;42.034;25.834;2022-11-18T02:39:57;99238.38;;;8.58;100.00
9059;BME280;4564;42.034;25.834;2022-11-18T02:42:25;99255.41;;;8.59;100.00
9059;BME280;4564;42.034;25.834;2022-11-18T02:44:55;99265.19;;;8.60;100.00
9059;BME280;4564;42.034;25.834;2022-11-18T02:47:23;99262.88;;;8.50;100.00
9059;BME280;4564;42.034;25.834;2022-11-18T02:49:53;99261.97;;;8.43;100.00
9059;BME280;4564;42.034;25.834;2022-11-18T02:52:21;99255.53;;;8.44;100.00
9059;BME280;4564;42.034;25.834;2022-11-18T02:54:48;99253.72;;;8.51;100.00
9059;BME280;4564;42.034;25.834;2022-11-18T02:57:16;99255.19;;;8.54;100.00
9059;BME280;4564;42.034;25.834;2022-11-18T02:59:44;99265.00;;;8.61;100.00
9059;BME280;4564;42.034;25.834;2022-11-18T03:02:14;99261.88;;;8.58;100.00
9059;BME280;4564;42.034;25.834;2022-11-18T03:04:41;99266.91;;;8.67;100.00
9059;BME280;4564;42.034;25.834;2022-11-18T03:07:09;99265.81;;;8.55;100.00
9059;BME280;4564;42.034;25.834;2022-11-18T03:09:37;99270.31;;;8.48;100.00
9059;BME280;4564;42.034;25.834;2022-11-18T03:12:09;99275.31;;;8.45;100.00
9059;BME280;4564;42.034;25.834;2022-11-18T03:14:39;99266.59;;;8.49;100.00
9059;BME280;4564;42.034;25.834;2022-11-18T03:17:09;99268.13;;;8.58;100.00
9059;BME280;4564;42.034;25.834;2022-11-18T03:19:51;99267.47;;;8.56;100.00
9059;BME280;4564;42.034;25.834;2022-11-18T03:22:22;99263.53;;;8.59;100.00
9059;BME280;4564;42.034;25.834;2022-11-18T03:24:53;99263.75;;;8.64;100.00
9059;BME280;4564;42.034;25.834;2022-11-18T03:27:22;99268.31;;;8.57;100.00
9059;BME280;4564;42.034;25.834;2022-11-18T03:29:52;99271.38;;;8.47;100.00
9059;BME280;4564;42.034;25.834;2022-11-18T03:32:22;99271.75;;;8.44;100.00
9059;BME280;4564;42.034;25.834;2022-11-18T03:34:53;99263.66;;;8.44;100.00
9059;BME280;4564;42.034;25.834;2022-11-18T03:37:21;99259.88;;;8.38;100.00
9059;BME280;4564;42.034;25.834;2022-11-18T03:39:49;99258.91;;;8.46;100.00
9059;BME280;4564;42.034;25.834;2022-11-18T03:42:18;99261.66;;;8.53;100.00
9059;BME280;4564;42.034;25.834;2022-11-18T03:44:50;99257.88;;;8.54;100.00
9059;BME280;4564;42.034;25.834;2022-11-18T03:47:18;99263.31;;;8.60;100.00
9059;BME280;4564;42.034;25.834;2022-11-18T03:49:48;99259.59;;;8.61;100.00
9059;BME280;4564;42.034;25.834;2022-11-18T03:52:19;99261.06;;;8.64;100.00
9059;BME280;4564;42.034;25.834;2022-11-18T03:54:48;99271.06;;;8.63;100.00
9059;BME280;4564;42.034;25.834;2022-11-18T03:57:16;99268.13;;;8.58;100.00
9059;BME280;4564;42.034;25.834;2022-11-18T03:59:46;99269.53;;;8.54;100.00
9059;BME280;4564;42.034;25.834;2022-11-18T04:02:14;99271.63;;;8.52;100.00
9059;BME280;4564;42.034;25.834;2022-11-18T04:04:42;99261.66;;;8.53;100.00
9059;BME280;4564;42.034;25.834;2022-11-18T04:07:10;99275.41;;;8.58;100.00
9059;BME280;4564;42.034;25.834;2022-11-18T04:09:44;99270.19;;;8.56;100.00
9059;BME280;4564;42.034;25.834;2022-11-18T04:12:12;99275.19;;;8.59;100.00
9059;BME280;4564;42.034;25.834;2022-11-18T04:14:41;99272.13;;;8.75;100.00
9059;BME280;4564;42.034;25.834;2022-11-18T04:17:08;99275.22;;;8.66;100.00
9059;BME280;4564;42.034;25.834;2022-11-18T04:19:35;99277.28;;;8.64;100.00
9059;BME280;4564;42.034;25.834;2022-11-18T04:22:02;99272.09;;;8.62;100.00
9059;BME280;4564;42.034;25.834;2022-11-18T04:24:29;99273.31;;;8.60;100.00
9059;BME280;4564;42.034;25.834;2022-11-18T04:26:57;99273.16;;;8.68;100.00
9059;BME280;4564;42.034;25.834;2022-11-18T04:29:23;99276.69;;;8.68;100.00
9059;BME280;4564;42.034;25.834;2022-11-18T04:31:50;99288.75;;;8.66;100.00
9059;BME280;4564;42.034;25.834;2022-11-18T04:34:16;99287.66;;;8.60;100.00
9059;BME280;4564;42.034;25.834;2022-11-18T04:36:43;99282.84;;;8.56;100.00
9059;BME280;4564;42.034;25.834;2022-11-18T04:39:10;99285.13;;;8.52;100.00
9059;BME280;4564;42.034;25.834;2022-11-18T04:41:36;99277.81;;;8.46;100.00
9059;BME280;4564;42.034;25.834;2022-11-18T04:44:22;99283.66;;;8.50;100.00
9059;BME280;4564;42.034;25.834;2022-11-18T04:46:49;99282.38;;;8.46;100.00
9059;BME280;4564;42.034;25.834;2022-11-18T04:49:16;99283.06;;;8.54;100.00
9059;BME280;4564;42.034;25.834;2022-11-18T04:51:43;99276.97;;;8.46;100.00
9059;BME280;4564;42.034;25.834;2022-11-18T04:54:10;99275.34;;;8.51;100.00
9059;BME280;4564;42.034;25.834;2022-11-18T04:56:38;99284.84;;;8.40;100.00
9059;BME280;4564;42.034;25.834;2022-11-18T04:59:05;99281.75;;;8.43;100.00
9059;BME280;4564;42.034;25.834;2022-11-18T05:01:33;99289.44;;;8.40;100.00
9059;BME280;4564;42.034;25.834;2022-11-18T05:04:00;99285.03;;;8.39;100.00
9059;BME280;4564;42.034;25.834;2022-11-18T05:06:27;99299.84;;;8.22;100.00
9059;BME280;4564;42.034;25.834;2022-11-18T05:08:53;99300.03;;;8.14;100.00
9059;BME280;4564;42.034;25.834;2022-11-18T05:11:20;99296.28;;;8.15;100.00
9059;BME280;4564;42.034;25.834;2022-11-18T05:14:05;99301.47;;;8.16;100.00
9059;BME280;4564;42.034;25.834;2022-11-18T05:16:33;99297.56;;;8.19;100.00
9059;BME280;4564;42.034;25.834;2022-11-18T05:19:00;99306.84;;;8.31;100.00
9059;BME280;4564;42.034;25.834;2022-11-18T05:21:27;99302.88;;;8.33;100.00
9059;BME280;4564;42.034;25.834;2022-11-18T05:23:53;99292.72;;;8.35;100.00
9059;BME280;4564;42.034;25.834;2022-11-18T05:26:20;99290.84;;;8.36;100.00
9059;BME280;4564;42.034;25.834;2022-11-18T05:28:46;99294.84;;;8.40;100.00
9059;BME280;4564;42.034;25.834;2022-11-18T05:31:13;99305.66;;;8.40;100.00
9059;BME280;4564;42.034;25.834;2022-11-18T05:33:42;99305.78;;;8.32;100.00
9059;BME280;4564;42.034;25.834;2022-11-18T05:36:10;99298.75;;;8.37;100.00
9059;BME280;4564;42.034;25.834;2022-11-18T05:38:37;99306.44;;;8.34;100.00
9059;BME280;4564;42.034;25.834;2022-11-18T05:41:04;99297.66;;;8.32;100.00
9059;BME280;4564;42.034;25.834;2022-11-18T05:43:31;99312.53;;;8.21;100.00
9059;BME280;4564;42.034;25.834;2022-11-18T05:45:58;99301.78;;;8.28;100.00
9059;BME280;4564;42.034;25.834;2022-11-18T05:48:25;99298.97;;;8.36;100.00
9059;BME280;4564;42.034;25.834;2022-11-18T05:50:53;99288.41;;;8.41;100.00
9059;BME280;4564;42.034;25.834;2022-11-18T05:53:20;99292.50;;;8.37;100.00
9059;BME280;4564;42.034;25.834;2022-11-18T05:55:49;99288.59;;;8.39;100.00
9059;BME280;4564;42.034;25.834;2022-11-18T05:58:19;99292.19;;;8.53;100.00
9059;BME280;4564;42.034;25.834;2022-11-18T06:00:45;99289.94;;;8.57;100.00
9059;BME280;4564;42.034;25.834;2022-11-18T06:03:15;99287.91;;;8.65;100.00
9059;BME280;4564;42.034;25.834;2022-11-18T06:05:44;99292.72;;;8.70;100.00
9059;BME280;4564;42.034;25.834;2022-11-18T06:08:13;99287.75;;;8.73;100.00
9059;BME280;4564;42.034;25.834;2022-11-18T06:10:41;99288.78;;;8.72;100.00
9059;BME280;4564;42.034;25.834;2022-11-18T06:13:08;99292.38;;;8.79;100.00
9059;BME280;4564;42.034;25.834;2022-11-18T06:15:37;99287.81;;;8.87;100.00
9059;BME280;4564;42.034;25.834;2022-11-18T06:18:06;99295.53;;;8.90;100.00
9059;BME280;4564;42.034;25.834;2022-11-18T06:20:34;99310.97;;;8.96;100.00
9059;BME280;4564;42.034;25.834;2022-11-18T06:23:02;99311.69;;;8.76;100.00
9059;BME280;4564;42.034;25.834;2022-11-18T06:25:30;99306.13;;;8.84;100.00
9059;BME280;4564;42.034;25.834;2022-11-18T06:27:58;99302.13;;;8.80;100.00
9059;BME280;4564;42.034;25.834;2022-11-18T06:30:26;99303.41;;;8.91;100.00
9059;BME280;4564;42.034;25.834;2022-11-18T06:32:52;99304.06;;;8.93;100.00
9059;BME280;4564;42.034;25.834;2022-11-18T06:35:19;99302.25;;;9.00;100.00
9059;BME280;4564;42.034;25.834;2022-11-18T06:37:45;99296.03;;;9.06;100.00
9059;BME280;4564;42.034;25.834;2022-11-18T06:40:12;99302.94;;;9.28;100.00
9059;BME280;4564;42.034;25.834;2022-11-18T06:42:40;99291.31;;;9.35;100.00
9059;BME280;4564;42.034;25.834;2022-11-18T06:45:24;99303.63;;;9.50;100.00
9059;BME280;4564;42.034;25.834;2022-11-18T06:47:54;99315.09;;;9.52;100.00
9059;BME280;4564;42.034;25.834;2022-11-18T06:50:20;99322.00;;;9.61;100.00
9059;BME280;4564;42.034;25.834;2022-11-18T06:52:47;99321.38;;;9.73;100.00
9059;BME280;4564;42.034;25.834;2022-11-18T06:55:13;99329.34;;;9.87;100.00
9059;BME280;4564;42.034;25.834;2022-11-18T06:57:41;99331.84;;;9.89;100.00
9059;BME280;4564;42.034;25.834;2022-11-18T07:00:08;99337.91;;;9.97;100.00
9059;BME280;4564;42.034;25.834;2022-11-18T07:02:35;99339.16;;;9.95;100.00
9059;BME280;4564;42.034;25.834;2022-11-18T07:05:02;99336.66;;;10.06;100.00
9059;BME280;4564;42.034;25.834;2022-11-18T07:07:29;99323.34;;;10.18;100.00
9059;BME280;4564;42.034;25.834;2022-11-18T07:09:55;99317.50;;;10.28;100.00
9059;BME280;4564;42.034;25.834;2022-11-18T07:12:22;99322.53;;;10.31;100.00
9059;BME280;4564;42.034;25.834;2022-11-18T07:14:50;99326.91;;;10.25;100.00
9059;BME280;4564;42.034;25.834;2022-11-18T07:17:16;99327.31;;;10.22;100.00
9059;BME280;4564;42.034;25.834;2022-11-18T07:19:43;99331.06;;;10.28;100.00
9059;BME280;4564;42.034;25.834;2022-11-18T07:22:09;99327.50;;;10.27;100.00
9059;BME280;4564;42.034;25.834;2022-11-18T07:24:36;99322.09;;;10.40;100.00
9059;BME280;4564;42.034;25.834;2022-11-18T07:27:03;99327.91;;;10.57;100.00
9059;BME280;4564;42.034;25.834;2022-11-18T07:29:29;99332.50;;;10.50;99.99
9059;BME280;4564;42.034;25.834;2022-11-18T07:31:57;99326.84;;;10.58;100.00
9059;BME280;4564;42.034;25.834;2022-11-18T07:34:24;99314.09;;;10.78;100.00
9059;BME280;4564;42.034;25.834;2022-11-18T07:36:50;99320.13;;;10.80;99.59
9059;BME280;4564;42.034;25.834;2022-11-18T07:39:17;99313.28;;;10.58;100.00
9059;BME280;4564;42.034;25.834;2022-11-18T07:41:44;99310.56;;;10.58;100.00
9059;BME280;4564;42.034;25.834;2022-11-18T07:44:10;99305.78;;;10.67;100.00
9059;BME280;4564;42.034;25.834;2022-11-18T07:46:37;99301.38;;;10.66;100.00
9059;BME280;4564;42.034;25.834;2022-11-18T07:49:06;99302.41;;;10.78;100.00
9059;BME280;4564;42.034;25.834;2022-11-18T07:51:34;99294.00;;;10.86;100.00
9059;BME280;4564;42.034;25.834;2022-11-18T07:54:04;99287.56;;;10.80;100.00
9059;BME280;4564;42.034;25.834;2022-11-18T07:56:31;99291.75;;;10.83;100.00
9059;BME280;4564;42.034;25.834;2022-11-18T07:58:58;99285.03;;;10.92;100.00
9059;BME280;4564;42.034;25.834;2022-11-18T08:01:25;99293.16;;;10.92;100.00
9059;BME280;4564;42.034;25.834;2022-11-18T08:03:53;99288.56;;;10.99;100.00
9059;BME280;4564;42.034;25.834;2022-11-18T08:06:21;99293.50;;;11.15;100.00
9059;BME280;4564;42.034;25.834;2022-11-18T08:08:49;99290.72;;;11.28;100.00
9059;BME280;4564;42.034;25.834;2022-11-18T08:11:16;99293.41;;;11.35;100.00
9059;BME280;4564;42.034;25.834;2022-11-18T08:13:43;99291.69;;;11.41;99.28
9059;BME280;4564;42.034;25.834;2022-11-18T08:16:11;99283.25;;;11.55;99.41
9059;BME280;4564;42.034;25.834;2022-11-18T08:18:38;99281.03;;;11.77;98.44
9059;BME280;4564;42.034;25.834;2022-11-18T08:21:05;99283.75;;;11.77;98.17
9059;BME280;4564;42.034;25.834;2022-11-18T08:23:33;99286.28;;;11.72;97.43
9059;BME280;4564;42.034;25.834;2022-11-18T08:26:00;99282.97;;;11.70;98.16
9059;BME280;4564;42.034;25.834;2022-11-18T08:28:28;99278.94;;;11.79;99.16
9059;BME280;4564;42.034;25.834;2022-11-18T08:30:54;99276.69;;;12.01;97.98
9059;BME280;4564;42.034;25.834;2022-11-18T08:33:21;99278.91;;;12.10;97.56
9059;BME280;4564;42.034;25.834;2022-11-18T08:35:47;99278.41;;;12.20;97.28
9059;BME280;4564;42.034;25.834;2022-11-18T08:38:14;99270.97;;;12.34;96.79
9059;BME280;4564;42.034;25.834;2022-11-18T08:40:43;99265.56;;;12.27;95.58
9059;BME280;4564;42.034;25.834;2022-11-18T08:43:10;99256.31;;;12.35;95.63
9059;BME280;4564;42.034;25.834;2022-11-18T08:45:36;99253.75;;;12.40;97.01
9059;BME280;4564;42.034;25.834;2022-11-18T08:48:04;99262.31;;;12.61;96.01
9059;BME280;4564;42.034;25.834;2022-11-18T08:50:30;99260.72;;;12.72;94.27
9059;BME280;4564;42.034;25.834;2022-11-18T08:52:57;99265.84;;;12.80;94.31
9059;BME280;4564;42.034;25.834;2022-11-18T08:55:24;99261.75;;;13.08;94.78
9059;BME280;4564;42.034;25.834;2022-11-18T08:57:52;99262.66;;;13.38;94.37
9059;BME280;4564;42.034;25.834;2022-11-18T09:00:18;99263.66;;;13.55;92.90
9059;BME280;4564;42.034;25.834;2022-11-18T09:02:45;99273.38;;;13.51;92.01
9059;BME280;4564;42.034;25.834;2022-11-18T09:05:12;99272.44;;;13.27;93.38
9059;BME280;4564;42.034;25.834;2022-11-18T09:07:38;99270.41;;;13.53;93.58
9059;BME280;4564;42.034;25.834;2022-11-18T09:10:05;99263.69;;;13.67;94.68
9059;BME280;4564;42.034;25.834;2022-11-18T09:12:32;99257.50;;;14.01;93.81
9059;BME280;4564;42.034;25.834;2022-11-18T09:15:00;99262.50;;;14.27;91.52
9059;BME280;4564;42.034;25.834;2022-11-18T09:17:27;99260.94;;;14.20;90.79
9059;BME280;4564;42.034;25.834;2022-11-18T09:19:53;99257.81;;;14.46;90.72
9059;BME280;4564;42.034;25.834;2022-11-18T09:22:20;99262.16;;;14.59;89.90
9059;BME280;4564;42.034;25.834;2022-11-18T09:24:46;99252.41;;;14.75;89.82
9059;BME280;4564;42.034;25.834;2022-11-18T09:27:13;99247.66;;;14.70;89.30
9059;BME280;4564;42.034;25.834;2022-11-18T09:29:40;99244.81;;;14.77;89.82
9059;BME280;4564;42.034;25.834;2022-11-18T09:32:08;99235.94;;;14.35;90.37
9059;BME280;4564;42.034;25.834;2022-11-18T09:34:34;99235.81;;;14.53;90.33
9059;BME280;4564;42.034;25.834;2022-11-18T09:37:02;99228.94;;;14.74;90.06
9059;BME280;4564;42.034;25.834;2022-11-18T09:39:30;99239.47;;;14.70;89.53
9059;BME280;4564;42.034;25.834;2022-11-18T09:41:59;99196.75;;;14.64;88.74
9059;BME280;4564;42.034;25.834;2022-11-18T09:44:32;99235.44;;;15.12;88.28
9059;BME280;4564;42.034;25.834;2022-11-18T09:47:05;99240.28;;;14.94;87.75
9059;BME280;4564;42.034;25.834;2022-11-18T09:49:35;99233.75;;;14.95;88.91
9059;BME280;4564;42.034;25.834;2022-11-18T09:52:03;99231.34;;;14.98;88.60
9059;BME280;4564;42.034;25.834;2022-11-18T09:54:32;99230.72;;;15.08;88.26
9059;BME280;4564;42.034;25.834;2022-11-18T09:57:00;99233.34;;;15.03;88.83
9059;BME280;4564;42.034;25.834;2022-11-18T09:59:29;99227.75;;;15.09;89.48
9059;BME280;4564;42.034;25.834;2022-11-18T10:01:57;99231.34;;;14.98;89.45
9059;BME280;4564;42.034;25.834;2022-11-18T10:04:27;99232.25;;;15.16;89.70
9059;BME280;4564;42.034;25.834;2022-11-18T10:06:56;99224.88;;;15.16;89.10
9059;BME280;4564;42.034;25.834;2022-11-18T10:09:25;99211.06;;;15.23;89.24
9059;BME280;4564;42.034;25.834;2022-11-18T10:11:57;99205.41;;;15.12;89.29
9059;BME280;4564;42.034;25.834;2022-11-18T10:14:30;99212.66;;;15.07;89.21
9059;BME280;4564;42.034;25.834;2022-11-18T10:17:05;99212.00;;;15.00;90.45
9059;BME280;4564;42.034;25.834;2022-11-18T10:19:37;99203.81;;;14.88;90.68
9059;BME280;4564;42.034;25.834;2022-11-18T10:22:12;99204.69;;;14.65;91.56
9059;BME280;4564;42.034;25.834;2022-11-18T10:24:42;99207.28;;;14.84;91.71
9059;BME280;4564;42.034;25.834;2022-11-18T10:27:13;99208.03;;;14.67;92.04
9059;BME280;4564;42.034;25.834;2022-11-18T10:29:41;99194.94;;;14.81;92.84
9059;BME280;4564;42.034;25.834;2022-11-18T10:32:10;99180.31;;;14.87;92.89
9059;BME280;4564;42.034;25.834;2022-11-18T10:34:44;99187.56;;;14.82;92.71
9059;BME280;4564;42.034;25.834;2022-11-18T10:37:22;99173.38;;;14.56;94.22
9059;BME280;4564;42.034;25.834;2022-11-18T10:39:50;99162.91;;;14.65;93.90
9059;BME280;4564;42.034;25.834;2022-11-18T10:42:19;99154.50;;;14.66;94.54
9059;BME280;4564;42.034;25.834;2022-11-18T10:44:47;99147.97;;;14.67;94.20
9059;BME280;4564;42.034;25.834;2022-11-18T10:47:24;99139.78;;;14.67;94.06
9059;BME280;4564;42.034;25.834;2022-11-18T10:49:51;99135.28;;;14.61;94.05
9059;BME280;4564;42.034;25.834;2022-11-18T10:52:18;99133.63;;;14.49;93.60
9059;BME280;4564;42.034;25.834;2022-11-18T10:54:46;99123.56;;;14.26;95.07
9059;BME280;4564;42.034;25.834;2022-11-18T10:57:30;99126.44;;;14.19;95.75
9059;BME280;4564;42.034;25.834;2022-11-18T11:00:00;99120.25;;;13.77;96.56
9059;BME280;4564;42.034;25.834;2022-11-18T11:02:28;99116.34;;;13.73;97.27
9059;BME280;4564;42.034;25.834;2022-11-18T11:04:56;99112.41;;;13.46;99.02
9059;BME280;4564;42.034;25.834;2022-11-18T11:07:24;99116.84;;;13.59;98.42
9059;BME280;4564;42.034;25.834;2022-11-18T11:10:12;99122.06;;;13.60;98.32
9059;BME280;4564;42.034;25.834;2022-11-18T11:12:43;99124.38;;;13.45;98.25
9059;BME280;4564;42.034;25.834;2022-11-18T11:15:13;99113.34;;;13.40;99.31
9059;BME280;4564;42.034;25.834;2022-11-18T11:17:44;99109.13;;;13.44;99.82
9059;BME280;4564;42.034;25.834;2022-11-18T11:20:33;99097.63;;;13.54;99.94
9059;BME280;4564;42.034;25.834;2022-11-18T11:23:01;99096.22;;;13.74;99.47
9059;BME280;4564;42.034;25.834;2022-11-18T11:25:35;99093.72;;;13.96;99.82
9059;BME280;4564;42.034;25.834;2022-11-18T11:28:07;99081.97;;;14.07;98.56
9059;BME280;4564;42.034;25.834;2022-11-18T11:30:38;99068.53;;;14.17;97.91
9059;BME280;4564;42.034;25.834;2022-11-18T11:33:13;99064.00;;;14.23;98.39
9059;BME280;4564;42.034;25.834;2022-11-18T11:35:46;99061.63;;;14.38;98.32
9059;BME280;4564;42.034;25.834;2022-11-18T11:38:17;99065.44;;;14.65;97.93
9059;BME280;4564;42.034;25.834;2022-11-18T11:40:51;99053.31;;;14.73;96.86
9059;BME280;4564;42.034;25.834;2022-11-18T11:43:26;99057.81;;;14.96;96.55
9059;BME280;4564;42.034;25.834;2022-11-18T11:46:00;99053.16;;;14.96;95.96
9059;BME280;4564;42.034;25.834;2022-11-18T11:48:31;99047.97;;;15.11;95.40
9059;BME280;4564;42.034;25.834;2022-11-18T11:51:03;99045.63;;;14.87;95.91
9059;BME280;4564;42.034;25.834;2022-11-18T11:56:22;99054.25;;;15.12;96.57
9059;BME280;4564;42.034;25.834;2022-11-18T11:59:11;99057.19;;;15.22;96.00
9059;BME280;4564;42.034;25.834;2022-11-18T12:01:42;99057.34;;;15.32;96.02
9059;BME280;4564;42.034;25.834;2022-11-18T12:04:16;99052.53;;;15.23;96.12
9059;BME280;4564;42.034;25.834;2022-11-18T12:06:45;99043.78;;;15.37;95.77
9059;BME280;4564;42.034;25.834;2022-11-18T12:09:14;99045.25;;;15.62;95.56
9059;BME280;4564;42.034;25.834;2022-11-18T12:11:45;99034.47;;;15.72;94.30
9059;BME280;4564;42.034;25.834;2022-11-18T12:14:16;99032.16;;;15.64;94.93
9059;BME280;4564;42.034;25.834;2022-11-18T12:16:47;99033.31;;;15.68;94.86
9059;BME280;4564;42.034;25.834;2022-11-18T12:19:18;99026.00;;;15.73;95.00
9059;BME280;4564;42.034;25.834;2022-11-18T12:21:58;99032.63;;;15.77;93.82
9059;BME280;4564;42.034;25.834;2022-11-18T12:24:34;99024.72;;;15.59;94.19
9059;BME280;4564;42.034;25.834;2022-11-18T12:27:03;99017.97;;;15.50;94.46
9059;BME280;4564;42.034;25.834;2022-11-18T12:29:34;99016.22;;;15.44;95.48
9059;BME280;4564;42.034;25.834;2022-11-18T12:32:02;99020.06;;;15.09;96.74
9059;BME280;4564;42.034;25.834;2022-11-18T12:34:35;99012.94;;;15.08;97.11
9059;BME280;4564;42.034;25.834;2022-11-18T12:39:55;98999.50;;;14.90;98.72
9059;BME280;4564;42.034;25.834;2022-11-18T12:42:34;99000.69;;;14.94;99.09
9059;BME280;4564;42.034;25.834;2022-11-18T12:51:10;99001.19;;;14.91;99.57
9059;BME280;4564;42.034;25.834;2022-11-18T12:53:56;99002.59;;;14.94;99.10
9059;BME280;4564;42.034;25.834;2022-11-18T12:56:25;99008.31;;;14.92;99.15
9059;BME280;4564;42.034;25.834;2022-11-18T12:58:54;98994.72;;;14.97;99.29
9059;BME280;4564;42.034;25.834;2022-11-18T13:01:24;98977.50;;;14.97;99.53
9059;BME280;4564;42.034;25.834;2022-11-18T13:03:52;98967.09;;;14.94;99.31
9059;BME280;4564;42.034;25.834;2022-11-18T13:06:31;98973.44;;;14.83;99.67
9059;BME280;4564;42.034;25.834;2022-11-18T13:08:59;98968.06;;;14.71;100.00
9059;BME280;4564;42.034;25.834;2022-11-18T13:11:27;98960.25;;;14.63;100.00
9059;BME280;4564;42.034;25.834;2022-11-18T13:14:14;98958.69;;;14.50;100.00
9059;BME280;4564;42.034;25.834;2022-11-18T13:16:59;98955.59;;;14.47;100.00
9059;BME280;4564;42.034;25.834;2022-11-18T13:19:52;98946.94;;;14.50;100.00
9059;BME280;4564;42.034;25.834;2022-11-18T13:22:20;98950.50;;;14.50;100.00
9059;BME280;4564;42.034;25.834;2022-11-18T13:25:03;98939.75;;;14.32;100.00
9059;BME280;4564;42.034;25.834;2022-11-18T13:27:34;98942.47;;;14.32;100.00
9059;BME280;4564;42.034;25.834;2022-11-18T13:30:08;98948.53;;;14.34;100.00
9059;BME280;4564;42.034;25.834;2022-11-18T13:32:36;98946.50;;;14.41;100.00
9059;BME280;4564;42.034;25.834;2022-11-18T13:35:10;98942.31;;;14.50;100.00
9059;BME280;4564;42.034;25.834;2022-11-18T13:37:46;98923.88;;;14.57;100.00